Time;durP1;ratioP1;P1;durP2;ratioP2;P2;SDS_P1;SDS_P2;PMS_P1;PMS_P2;Temp;Humidity;BMP_temperature;BMP_pressure;BME280_temperature;BME280_humidity;BME280_pressure;Samples;Min_cycle;Max_cycle;Signal;HPM_P1;HPM_P2
2023/12/11 00:01:09;;;;;;;0.47;0.47;;;8.50;99.90;;;;;;5064913;28;20053;-88
2023/12/11 00:03:35;;;;;;;2.40;0.88;;;8.40;1.00;;;;;;5041500;28;20084;-88
2023/12/11 00:06:00;;;;;;;1.23;1.13;;;8.30;1.00;;;;;;5059738;28;20056;-87
2023/12/11 00:08:26;;;;;;;0.77;0.77;;;8.20;1.00;;;;;;5049966;28;20046;-88
2023/12/11 00:10:51;;;;;;;0.93;0.75;;;8.10;1.00;;;;;;5023891;28;20042;-88
2023/12/11 00:13:17;;;;;;;0.00;0.00;;;8.10;1.00;;;;;;5040401;28;20041;-88
2023/12/11 00:15:43;;;;;;;4.57;1.88;;;8.00;1.00;;;;;;5042781;28;20172;-89
2023/12/11 00:18:08;;;;;;;13.20;1.00;;;8.00;1.00;;;;;;5056901;28;20056;-88
2023/12/11 00:20:34;;;;;;;2.38;0.45;;;8.10;1.00;;;;;;5058960;28;20037;-88
2023/12/11 00:23:00;;;;;;;1.83;1.00;;;8.10;3.80;;;;;;5039743;28;20033;-88
2023/12/11 00:25:28;;;;;;;0.00;0.00;;;8.00;1.00;;;;;;5058927;28;20101;-88
2023/12/11 00:27:54;;;;;;;0.00;0.00;;;8.00;93.80;;;;;;5030392;28;20076;-88
2023/12/11 00:30:20;;;;;;;2.90;1.45;;;8.00;99.90;;;;;;5039502;28;20038;-87
2023/12/11 00:32:45;;;;;;;1.10;1.00;;;8.00;99.90;;;;;;5056950;28;20037;-88
2023/12/11 00:35:11;;;;;;;8.98;2.08;;;8.10;99.90;;;;;;5054394;28;20037;-88
2023/12/11 00:37:36;;;;;;;2.03;1.80;;;8.20;99.90;;;;;;5039659;28;20041;-88
2023/12/11 00:40:02;;;;;;;0.52;0.52;;;8.20;99.90;;;;;;5038739;28;20038;-88
2023/12/11 00:42:28;;;;;;;1.88;0.90;;;8.10;99.90;;;;;;5043984;28;20170;-88
2023/12/11 00:44:54;;;;;;;0.65;0.45;;;8.10;99.90;;;;;;5057906;28;20076;-88
2023/12/11 00:47:20;;;;;;;0.65;0.38;;;8.10;99.90;;;;;;5057432;28;20044;-88
2023/12/11 00:49:46;;;;;;;0.65;0.65;;;8.10;99.90;;;;;;5024249;28;20128;-88
2023/12/11 00:52:12;;;;;;;14.02;1.17;;;8.10;1.00;;;;;;5046231;28;20048;-88
2023/12/11 00:54:38;;;;;;;4.78;0.98;;;8.10;99.90;;;;;;5037460;28;20041;-88
2023/12/11 00:57:03;;;;;;;16.60;2.80;;;8.10;99.90;;;;;;5037107;28;20057;-88
2023/12/11 00:59:29;;;;;;;25.75;4.00;;;8.10;99.90;;;;;;5019545;28;20038;-88
2023/12/11 01:01:55;;;;;;;0.00;0.00;;;8.10;99.90;;;;;;5052479;28;20063;-88
2023/12/11 01:04:21;;;;;;;0.00;0.00;;;8.00;99.90;;;;;;5056866;28;20098;-87
2023/12/11 01:06:46;;;;;;;5.07;2.63;;;8.10;99.90;;;;;;5025449;28;20089;-88
2023/12/11 01:09:12;;;;;;;1.23;1.17;;;8.20;99.90;;;;;;5038375;28;20042;-88
2023/12/11 01:11:39;;;;;;;2.22;1.88;;;8.20;99.90;;;;;;5039244;28;20041;-88
2023/12/11 01:14:04;;;;;;;0.85;0.85;;;8.20;99.90;;;;;;5039623;28;20041;-87
2023/12/11 01:16:30;;;;;;;0.82;0.80;;;8.30;1.00;;;;;;5039214;28;20041;-87
2023/12/11 01:18:56;;;;;;;7.32;1.80;;;8.30;99.90;;;;;;5039015;28;20096;-88
2023/12/11 01:21:21;;;;;;;1.67;0.75;;;8.30;1.00;;;;;;5039415;28;20065;-87
2023/12/11 01:23:47;;;;;;;3.75;0.95;;;8.20;1.00;;;;;;5039759;28;20052;-87
2023/12/11 01:26:13;;;;;;;5.93;3.53;;;8.20;1.00;;;;;;5039512;28;20042;-90
2023/12/11 01:28:38;;;;;;;10.02;1.85;;;8.20;99.90;;;;;;5021546;28;20105;-88
2023/12/11 01:31:04;;;;;;;1.75;1.17;;;8.10;99.90;;;;;;5029953;28;20042;-88
2023/12/11 01:33:30;;;;;;;1.38;1.00;;;8.20;99.90;;;;;;5024629;28;20088;-88
2023/12/11 01:35:55;;;;;;;5.40;1.90;;;8.20;99.90;;;;;;5034824;28;20037;-88
2023/12/11 01:38:21;;;;;;;11.90;3.67;;;8.20;99.90;;;;;;5042480;28;20041;-89
2023/12/11 01:40:47;;;;;;;1.25;0.93;;;8.30;1.00;;;;;;5041984;28;20041;-88
2023/12/11 01:43:23;;;;;;;5.18;1.77;;;8.30;99.90;;;;;;5043489;28;20053;-88
2023/12/11 01:46:11;;;;;;;0.60;0.57;;;8.40;99.90;;;;;;5026299;28;20741;-88
2023/12/11 01:48:37;;;;;;;0.28;0.28;;;8.30;99.90;;;;;;5042981;28;20037;-88
2023/12/11 01:51:05;;;;;;;4.38;1.10;;;8.30;99.90;;;;;;5042762;28;20044;-88
2023/12/11 01:53:32;;;;;;;6.05;1.98;;;8.30;99.90;;;;;;5037935;28;20041;-88
2023/12/11 01:55:58;;;;;;;0.68;0.68;;;8.40;99.90;;;;;;5043141;28;20042;-88
2023/12/11 01:58:24;;;;;;;7.88;3.47;;;8.40;99.90;;;;;;5035124;28;20037;-88
2023/12/11 02:00:51;;;;;;;0.25;0.25;;;8.40;99.90;;;;;;5048138;28;20037;-88
2023/12/11 02:03:17;;;;;;;3.75;1.17;;;8.50;99.90;;;;;;5053913;28;20037;-88
2023/12/11 02:05:43;;;;;;;1.13;0.15;;;8.50;99.90;;;;;;5069007;28;20045;-88
2023/12/11 02:08:10;;;;;;;0.00;0.00;;;8.60;99.90;;;;;;5044341;28;20048;-88
2023/12/11 02:10:36;;;;;;;6.20;0.68;;;8.60;99.90;;;;;;5061411;28;20388;-88
2023/12/11 02:13:03;;;;;;;0.93;0.80;;;8.60;96.40;;;;;;5061684;28;20037;-88
2023/12/11 02:15:45;;;;;;;3.78;1.15;;;8.60;83.70;;;;;;5060432;28;20409;-88
2023/12/11 02:18:12;;;;;;;3.72;1.58;;;8.60;99.90;;;;;;5064364;28;20045;-88
2023/12/11 02:20:38;;;;;;;2.03;1.13;;;8.60;99.90;;;;;;5046353;28;20041;-88
2023/12/11 02:23:10;;;;;;;17.65;2.10;;;8.60;99.90;;;;;;5064547;28;20040;-88
2023/12/11 02:25:36;;;;;;;2.67;2.05;;;8.60;99.90;;;;;;5046190;28;20765;-88
2023/12/11 02:28:04;;;;;;;2.42;0.75;;;8.70;99.90;;;;;;5078238;28;20041;-87
2023/12/11 02:30:34;;;;;;;2.15;1.98;;;8.70;99.90;;;;;;5075111;28;20068;-88
2023/12/11 02:32:59;;;;;;;2.85;1.85;;;8.70;99.90;;;;;;5054321;28;20041;-88
2023/12/11 02:35:25;;;;;;;9.82;3.58;;;8.60;99.90;;;;;;5047034;28;20044;-88
2023/12/11 02:37:51;;;;;;;0.30;0.30;;;8.60;99.90;;;;;;5062975;28;20049;-88
2023/12/11 02:40:16;;;;;;;0.95;0.90;;;8.60;99.90;;;;;;5045316;28;20053;-88
2023/12/11 02:42:48;;;;;;;4.82;1.67;;;8.50;99.90;;;;;;5061951;28;20055;-88
2023/12/11 02:45:17;;;;;;;8.30;2.55;;;8.60;99.90;;;;;;5043331;28;20095;-87
2023/12/11 02:47:42;;;;;;;1.70;1.13;;;8.60;99.90;;;;;;5073730;28;20045;-87
2023/12/11 02:50:08;;;;;;;0.38;0.38;;;8.60;99.90;;;;;;5056760;28;20044;-88
2023/12/11 02:52:34;;;;;;;0.10;0.10;;;8.50;99.90;;;;;;5061750;28;20049;-87
2023/12/11 02:55:00;;;;;;;9.43;2.53;;;8.60;99.90;;;;;;5043603;28;20068;-87
2023/12/11 02:57:25;;;;;;;2.45;0.55;;;8.50;99.90;;;;;;5063224;28;20041;-87
2023/12/11 02:59:51;;;;;;;0.90;0.90;;;8.60;99.90;;;;;;5063480;28;20041;-87
2023/12/11 03:02:17;;;;;;;0.00;0.00;;;8.60;99.90;;;;;;5064291;28;20136;-88
2023/12/11 03:04:42;;;;;;;4.72;3.30;;;8.50;99.90;;;;;;5062382;28;20128;-87
2023/12/11 03:07:08;;;;;;;1.13;0.45;;;8.50;99.90;;;;;;5048093;28;20384;-87
2023/12/11 03:09:34;;;;;;;0.30;0.22;;;8.60;99.90;;;;;;5045445;28;20384;-88
2023/12/11 03:11:59;;;;;;;0.75;0.75;;;8.50;99.90;;;;;;5042007;28;20048;-87
2023/12/11 03:14:25;;;;;;;0.40;0.20;;;8.60;99.90;;;;;;5045785;28;20049;-87
2023/12/11 03:16:50;;;;;;;13.80;0.95;;;8.60;99.90;;;;;;5040701;28;20045;-87
2023/12/11 03:19:16;;;;;;;2.75;2.08;;;8.60;99.90;;;;;;5040649;28;20049;-87
2023/12/11 03:21:42;;;;;;;1.30;1.00;;;8.50;99.90;;;;;;5040620;28;20037;-87
2023/12/11 03:24:08;;;;;;;0.00;0.00;;;8.50;99.90;;;;;;5050643;28;20045;-87
2023/12/11 03:26:33;;;;;;;3.92;1.08;;;8.50;99.90;;;;;;5056569;28;20075;-87
2023/12/11 03:28:59;;;;;;;1.92;1.77;;;8.50;99.90;;;;;;5029210;28;20049;-87
2023/12/11 03:31:25;;;;;;;16.33;1.23;;;8.50;99.90;;;;;;5050765;28;20042;-87
2023/12/11 03:33:50;;;;;;;0.15;0.15;;;8.40;99.90;;;;;;5040513;28;20099;-87
2023/12/11 03:36:16;;;;;;;0.75;0.55;;;8.50;99.90;;;;;;5039852;28;20075;-87
2023/12/11 03:38:42;;;;;;;0.00;0.00;;;8.60;99.90;;;;;;5040741;28;20068;-89
2023/12/11 03:41:08;;;;;;;6.25;2.20;;;8.50;99.90;;;;;;5026628;28;20045;-89
2023/12/11 03:43:33;;;;;;;2.83;2.08;;;8.60;99.90;;;;;;5025999;28;20042;-86
2023/12/11 03:46:00;;;;;;;2.70;1.75;;;8.50;1.00;;;;;;5046596;28;20125;-86
2023/12/11 03:48:25;;;;;;;0.00;0.00;;;8.60;1.00;;;;;;5021904;28;20124;-87
2023/12/11 03:50:52;;;;;;;0.20;0.20;;;8.60;1.00;;;;;;5042229;28;20065;-87
2023/12/11 03:53:17;;;;;;;15.80;1.85;;;8.50;1.00;;;;;;5028829;28;20059;-87
2023/12/11 03:55:43;;;;;;;1.40;0.57;;;8.50;76.70;;;;;;5058750;28;20128;-86
2023/12/11 03:58:09;;;;;;;0.38;0.38;;;8.50;99.90;;;;;;5055032;28;20445;-87
2023/12/11 04:00:34;;;;;;;0.08;0.08;;;8.60;99.90;;;;;;5053020;28;20041;-86
2023/12/11 04:03:00;;;;;;;17.27;3.28;;;8.60;99.90;;;;;;5040499;28;20052;-85
2023/12/11 04:05:26;;;;;;;1.17;1.08;;;8.60;99.90;;;;;;5030587;28;20048;-85
2023/12/11 04:07:51;;;;;;;0.60;0.60;;;8.60;99.90;;;;;;5060350;28;20068;-85
2023/12/11 04:10:17;;;;;;;0.82;0.52;;;8.70;99.90;;;;;;5060168;28;20083;-86
2023/12/11 04:12:43;;;;;;;2.55;2.35;;;8.60;99.90;;;;;;5061392;28;20044;-86
2023/12/11 04:15:10;;;;;;;4.15;1.35;;;8.70;99.90;;;;;;5061427;28;20052;-84
2023/12/11 04:17:36;;;;;;;0.00;0.00;;;8.70;1.00;;;;;;5063046;28;20029;-84
2023/12/11 04:20:03;;;;;;;4.68;3.30;;;8.70;1.00;;;;;;5048881;28;20417;-85
2023/12/11 04:22:29;;;;;;;4.78;1.83;;;8.70;1.00;;;;;;5061441;28;20052;-85
2023/12/11 04:24:55;;;;;;;1.30;0.77;;;8.70;1.00;;;;;;5064079;28;20036;-85
2023/12/11 04:27:20;;;;;;;7.28;1.42;;;8.70;2.40;;;;;;5063175;28;20037;-85
2023/12/11 04:29:46;;;;;;;1.75;1.65;;;8.70;29.40;;;;;;5060223;28;20071;-84
2023/12/11 04:32:12;;;;;;;2.25;1.25;;;8.80;62.10;;;;;;5060173;28;20045;-85
2023/12/11 04:34:37;;;;;;;20.83;2.05;;;8.80;99.90;;;;;;5059811;28;20044;-85
2023/12/11 04:37:03;;;;;;;12.35;2.25;;;8.80;99.90;;;;;;5053712;28;20053;-86
2023/12/11 04:39:29;;;;;;;13.85;1.45;;;8.70;99.90;;;;;;5059603;28;20048;-85
2023/12/11 04:41:54;;;;;;;0.45;0.43;;;8.80;99.90;;;;;;5059722;28;20043;-86
2023/12/11 04:44:20;;;;;;;0.73;0.65;;;8.80;99.90;;;;;;5058761;28;20037;-86
2023/12/11 04:46:45;;;;;;;9.77;1.13;;;8.80;99.90;;;;;;5040969;28;20045;-85
2023/12/11 04:49:11;;;;;;;10.18;1.98;;;8.80;99.90;;;;;;5060704;28;20037;-85
2023/12/11 04:51:37;;;;;;;0.63;0.63;;;8.80;99.90;;;;;;5041777;28;20394;-85
2023/12/11 04:54:02;;;;;;;1.02;0.65;;;8.80;99.90;;;;;;5061236;28;20500;-85
2023/12/11 04:56:28;;;;;;;1.70;1.13;;;8.80;99.90;;;;;;5059610;28;20112;-85
2023/12/11 04:58:54;;;;;;;0.22;0.22;;;8.80;99.90;;;;;;5060341;28;20051;-84
2023/12/11 05:01:20;;;;;;;2.80;1.55;;;8.80;99.90;;;;;;5059121;28;20397;-86
2023/12/11 05:03:45;;;;;;;0.00;0.00;;;8.80;99.90;;;;;;5058722;28;20091;-86
2023/12/11 05:06:11;;;;;;;0.00;0.00;;;8.80;99.90;;;;;;5057911;28;20044;-86
2023/12/11 05:08:37;;;;;;;4.53;2.05;;;8.80;99.90;;;;;;5039987;28;20064;-86
2023/12/11 05:11:02;;;;;;;12.95;0.95;;;8.80;99.90;;;;;;5058695;28;20115;-86
2023/12/11 05:13:28;;;;;;;4.28;1.65;;;8.70;99.90;;;;;;5073187;28;20127;-86
2023/12/11 05:15:54;;;;;;;4.15;1.42;;;8.80;99.90;;;;;;5071465;28;20121;-87
2023/12/11 05:18:20;;;;;;;1.45;0.95;;;8.70;99.90;;;;;;5038931;28;20121;-86
2023/12/11 05:20:46;;;;;;;0.65;0.65;;;8.80;99.90;;;;;;5057295;28;20399;-85
2023/12/11 05:23:11;;;;;;;9.88;1.10;;;8.80;99.90;;;;;;5056772;28;20049;-86
2023/12/11 05:25:37;;;;;;;1.30;0.50;;;8.70;99.90;;;;;;5057692;28;20037;-86
2023/12/11 05:28:03;;;;;;;9.15;2.25;;;8.70;99.90;;;;;;5057840;28;20487;-86
2023/12/11 05:30:28;;;;;;;1.55;1.27;;;8.70;99.90;;;;;;5038193;28;20049;-86
2023/12/11 05:32:54;;;;;;;1.10;0.95;;;8.70;99.90;;;;;;5061038;28;20045;-86
2023/12/11 05:35:20;;;;;;;7.72;2.67;;;8.70;99.90;;;;;;5038960;28;20546;-86
2023/12/11 05:37:45;;;;;;;5.93;0.70;;;8.60;99.90;;;;;;5057355;28;20097;-86
2023/12/11 05:40:11;;;;;;;0.13;0.13;;;8.70;99.90;;;;;;5057702;28;20077;-86
2023/12/11 05:42:37;;;;;;;0.45;0.45;;;8.70;99.90;;;;;;5044456;28;20098;-87
2023/12/11 05:45:03;;;;;;;7.05;2.97;;;8.60;99.90;;;;;;5039129;28;20457;-87
2023/12/11 05:47:29;;;;;;;5.72;2.38;;;8.60;99.90;;;;;;5056493;28;20540;-87
2023/12/11 05:49:54;;;;;;;3.03;1.95;;;8.70;99.90;;;;;;5057352;28;20032;-87
2023/12/11 05:52:20;;;;;;;0.17;0.10;;;8.70;99.90;;;;;;5062873;28;20039;-87
2023/12/11 05:54:45;;;;;;;4.82;1.23;;;8.70;99.90;;;;;;5075874;28;20056;-87
2023/12/11 05:57:11;;;;;;;2.17;0.80;;;8.70;99.90;;;;;;5056446;28;20068;-87
2023/12/11 05:59:37;;;;;;;2.72;1.98;;;8.70;99.90;;;;;;5056718;28;20044;-86
2023/12/11 06:02:02;;;;;;;12.75;2.20;;;8.70;99.90;;;;;;5057907;28;20037;-87
2023/12/11 06:04:28;;;;;;;15.82;1.52;;;8.70;99.90;;;;;;5057272;28;20040;-87
2023/12/11 06:06:54;;;;;;;0.95;0.85;;;8.70;99.90;;;;;;5056818;28;20044;-87
2023/12/11 06:09:19;;;;;;;1.13;1.02;;;8.60;99.90;;;;;;5057088;28;20044;-87
2023/12/11 06:11:45;;;;;;;0.47;0.13;;;8.70;99.90;;;;;;5055674;28;20037;-87
2023/12/11 06:14:10;;;;;;;3.25;0.55;;;8.70;99.90;;;;;;5058978;28;20041;-87
2023/12/11 06:16:36;;;;;;;0.38;0.38;;;8.70;99.90;;;;;;5067156;28;20098;-87
2023/12/11 06:19:02;;;;;;;8.88;1.65;;;8.60;99.90;;;;;;5044058;28;20049;-87
2023/12/11 06:21:28;;;;;;;11.00;1.35;;;8.70;99.90;;;;;;5072113;28;20037;-87
2023/12/11 06:23:53;;;;;;;3.00;2.60;;;8.70;99.90;;;;;;5048318;28;20048;-87
2023/12/11 06:26:34;;;;;;;0.60;0.60;;;8.70;99.90;;;;;;5046608;28;20052;-88
2023/12/11 06:29:00;;;;;;;2.35;1.35;;;8.70;99.90;;;;;;5063039;28;20076;-87
2023/12/11 06:31:27;;;;;;;0.38;0.38;;;8.70;99.90;;;;;;5071680;28;20067;-88
2023/12/11 06:33:53;;;;;;;0.47;0.47;;;8.70;99.90;;;;;;5046648;28;20099;-87
2023/12/11 06:36:20;;;;;;;11.18;3.38;;;8.70;99.90;;;;;;5082619;28;20398;-88
2023/12/11 06:38:45;;;;;;;11.68;1.52;;;8.80;99.90;;;;;;5063367;28;20052;-88
2023/12/11 06:41:11;;;;;;;0.68;0.68;;;8.80;99.90;;;;;;5066000;28;20060;-88
2023/12/11 06:43:37;;;;;;;2.47;1.55;;;8.80;99.90;;;;;;5047042;28;20125;-88
2023/12/11 06:46:03;;;;;;;1.60;1.08;;;8.70;91.90;;;;;;5047032;28;20045;-87
2023/12/11 06:48:29;;;;;;;0.73;0.68;;;8.70;53.00;;;;;;5039839;28;20041;-87
2023/12/11 06:50:55;;;;;;;3.20;2.25;;;8.70;28.50;;;;;;5063693;28;20479;-86
2023/12/11 06:53:21;;;;;;;0.20;0.20;;;8.70;33.60;;;;;;5046795;28;20033;-86
2023/12/11 06:55:46;;;;;;;2.65;1.50;;;8.70;37.60;;;;;;5063310;28;20094;-86
2023/12/11 06:58:14;;;;;;;0.75;0.43;;;8.70;31.50;;;;;;5061745;28;20052;-86
2023/12/11 07:00:39;;;;;;;1.17;1.00;;;8.70;42.90;;;;;;5030672;28;20049;-86
2023/12/11 07:03:05;;;;;;;24.95;0.60;;;8.70;28.30;;;;;;5043403;28;20413;-85
2023/12/11 07:05:31;;;;;;;0.20;0.20;;;8.70;30.10;;;;;;5026289;28;20045;-86
2023/12/11 07:07:57;;;;;;;1.17;1.08;;;8.70;7.00;;;;;;5040975;28;20066;-87
2023/12/11 07:10:23;;;;;;;0.40;0.40;;;8.70;1.00;;;;;;5018098;28;20041;-86
2023/12/11 07:12:49;;;;;;;0.10;0.10;;;8.70;1.00;;;;;;5052387;28;20037;-86
2023/12/11 07:15:15;;;;;;;0.10;0.10;;;8.70;1.00;;;;;;5053876;28;20526;-86
2023/12/11 07:17:40;;;;;;;0.00;0.00;;;8.70;1.00;;;;;;5034312;28;20072;-86
2023/12/11 07:20:07;;;;;;;0.68;0.20;;;8.70;1.00;;;;;;5052127;28;20127;-86
2023/12/11 07:22:34;;;;;;;0.45;0.30;;;8.70;1.00;;;;;;5033594;28;20040;-86
2023/12/11 07:25:00;;;;;;;0.25;0.25;;;8.60;1.00;;;;;;5033972;28;20075;-85
2023/12/11 07:27:26;;;;;;;1.58;1.42;;;8.60;1.00;;;;;;5052044;28;20040;-85
2023/12/11 07:29:52;;;;;;;0.57;0.17;;;8.70;1.00;;;;;;5035929;28;20041;-86
2023/12/11 07:32:18;;;;;;;0.00;0.00;;;8.70;1.00;;;;;;5054288;28;20047;-85
2023/12/11 07:34:44;;;;;;;0.45;0.38;;;8.70;1.00;;;;;;5054284;28;20390;-85
2023/12/11 07:37:10;;;;;;;2.03;1.00;;;8.70;5.40;;;;;;5036318;28;20123;-85
2023/12/11 07:39:35;;;;;;;0.00;0.00;;;8.60;16.90;;;;;;5035915;28;20048;-85
2023/12/11 07:42:01;;;;;;;5.85;2.90;;;8.60;34.20;;;;;;5053659;28;20456;-85
2023/12/11 07:44:27;;;;;;;1.17;0.63;;;8.60;55.60;;;;;;5053662;28;20070;-85
2023/12/11 07:46:52;;;;;;;15.90;1.20;;;8.60;52.50;;;;;;5054016;28;20116;-86
2023/12/11 07:49:18;;;;;;;0.00;0.00;;;8.60;73.30;;;;;;5053978;28;20098;-86
2023/12/11 07:51:44;;;;;;;1.90;1.05;;;8.50;91.20;;;;;;5053709;28;20162;-86
2023/12/11 07:54:10;;;;;;;1.25;0.95;;;8.50;99.90;;;;;;5053866;28;20488;-86
2023/12/11 07:56:37;;;;;;;0.35;0.35;;;8.60;99.90;;;;;;5053730;28;20033;-86
2023/12/11 07:59:02;;;;;;;0.00;0.00;;;8.60;99.90;;;;;;5036813;28;20045;-86
2023/12/11 08:01:31;;;;;;;0.60;0.57;;;8.60;99.90;;;;;;5053297;28;20500;-86
2023/12/11 08:04:01;;;;;;;0.73;0.73;;;8.60;99.90;;;;;;5041716;28;20087;-86
2023/12/11 08:06:27;;;;;;;0.10;0.10;;;8.60;99.90;;;;;;5035632;28;20499;-86
2023/12/11 08:08:52;;;;;;;0.00;0.00;;;8.60;99.90;;;;;;5033270;28;20137;-86
2023/12/11 08:11:21;;;;;;;0.00;0.00;;;8.60;99.90;;;;;;5016201;28;20125;-86
2023/12/11 08:13:48;;;;;;;3.60;1.02;;;8.60;99.90;;;;;;5033450;28;20476;-86
2023/12/11 08:16:14;;;;;;;0.30;0.25;;;8.60;99.90;;;;;;5032992;28;20045;-86
2023/12/11 08:18:44;;;;;;;0.45;0.45;;;8.60;99.90;;;;;;5033292;28;20037;-86
2023/12/11 08:21:10;;;;;;;1.13;0.63;;;8.60;99.90;;;;;;5033307;28;20384;-86
2023/12/11 08:23:39;;;;;;;12.75;1.08;;;8.70;99.90;;;;;;5015431;28;20076;-86
2023/12/11 08:26:04;;;;;;;0.00;0.00;;;8.70;99.90;;;;;;5032924;28;20565;-86
2023/12/11 08:28:30;;;;;;;0.00;0.00;;;8.70;99.90;;;;;;5015155;28;20045;-86
2023/12/11 08:30:56;;;;;;;1.83;1.13;;;8.60;99.90;;;;;;5029998;28;20041;-86
2023/12/11 08:33:22;;;;;;;2.40;1.30;;;8.60;99.90;;;;;;5029846;28;20069;-86
2023/12/11 08:35:48;;;;;;;2.08;0.73;;;8.70;99.90;;;;;;5024488;28;20069;-86
2023/12/11 08:38:15;;;;;;;1.17;1.13;;;8.70;99.90;;;;;;5029904;28;20136;-86
2023/12/11 08:40:41;;;;;;;0.00;0.00;;;8.70;99.90;;;;;;5030589;28;20045;-86
2023/12/11 08:43:07;;;;;;;0.00;0.00;;;8.70;99.90;;;;;;5013667;28;20052;-86
2023/12/11 08:45:34;;;;;;;0.00;0.00;;;8.70;99.90;;;;;;5030771;28;20041;-86
2023/12/11 08:48:00;;;;;;;0.00;0.00;;;8.70;99.90;;;;;;5032365;28;20403;-86
2023/12/11 08:50:25;;;;;;;0.88;0.52;;;8.70;99.90;;;;;;5032701;28;20038;-86
2023/12/11 08:52:51;;;;;;;0.10;0.10;;;8.80;99.90;;;;;;5016961;28;20045;-86
2023/12/11 08:55:17;;;;;;;0.30;0.30;;;8.80;99.90;;;;;;5019932;28;20041;-86
2023/12/11 08:57:44;;;;;;;0.00;0.00;;;8.90;99.90;;;;;;5023374;28;20045;-87
2023/12/11 09:00:10;;;;;;;1.95;1.02;;;8.80;99.90;;;;;;4997981;28;20057;-86
2023/12/11 09:02:36;;;;;;;0.00;0.00;;;8.90;99.90;;;;;;5030058;28;20041;-86
2023/12/11 09:05:02;;;;;;;3.50;0.73;;;8.90;99.90;;;;;;5020584;28;20171;-86
2023/12/11 09:07:28;;;;;;;0.17;0.17;;;8.90;99.90;;;;;;5052665;28;20045;-86
2023/12/11 09:09:54;;;;;;;0.00;0.00;;;8.90;99.90;;;;;;5052405;28;20051;-86
2023/12/11 09:12:21;;;;;;;0.10;0.10;;;8.90;99.90;;;;;;5052524;28;20783;-86
2023/12/11 09:14:46;;;;;;;1.08;0.22;;;9.00;99.90;;;;;;5034508;28;20549;-86
2023/12/11 09:17:12;;;;;;;0.00;0.00;;;9.00;99.90;;;;;;5052579;28;20193;-86
2023/12/11 09:19:37;;;;;;;0.00;0.00;;;9.00;99.90;;;;;;5049808;28;20140;-86
2023/12/11 09:22:03;;;;;;;1.77;0.70;;;9.00;99.90;;;;;;5015307;28;20106;-87
2023/12/11 09:24:29;;;;;;;0.20;0.20;;;9.00;99.90;;;;;;5031883;28;20079;-86
2023/12/11 09:26:55;;;;;;;0.05;0.05;;;9.00;99.90;;;;;;5032297;28;20131;-86
2023/12/11 09:29:20;;;;;;;0.45;0.45;;;9.00;99.90;;;;;;5049909;28;20429;-86
2023/12/11 09:31:46;;;;;;;0.00;0.00;;;9.00;99.90;;;;;;5050348;28;20041;-87
2023/12/11 09:34:12;;;;;;;0.00;0.00;;;9.00;99.90;;;;;;5050040;28;20041;-87
2023/12/11 09:36:38;;;;;;;0.00;0.00;;;9.00;99.90;;;;;;5049696;28;20049;-86
2023/12/11 09:39:04;;;;;;;0.00;0.00;;;9.10;99.90;;;;;;5062378;28;20032;-87
2023/12/11 09:41:33;;;;;;;0.17;0.08;;;9.10;99.90;;;;;;5059044;28;20060;-87
2023/12/11 09:44:01;;;;;;;0.00;0.00;;;9.10;99.90;;;;;;5050030;28;20045;-86
2023/12/11 09:46:29;;;;;;;0.57;0.55;;;9.10;99.90;;;;;;5032427;28;20048;-87
2023/12/11 09:48:55;;;;;;;0.20;0.20;;;9.10;99.90;;;;;;5030210;28;20037;-87
2023/12/11 09:51:21;;;;;;;3.38;1.25;;;9.10;99.90;;;;;;5012765;28;20103;-87
2023/12/11 09:53:48;;;;;;;3.22;1.45;;;9.10;99.90;;;;;;5033444;28;20120;-87
2023/12/11 09:56:15;;;;;;;0.00;0.00;;;9.10;99.90;;;;;;5054398;28;20178;-87
2023/12/11 09:58:43;;;;;;;0.35;0.35;;;9.20;99.90;;;;;;5053868;28;20125;-87
2023/12/11 10:01:12;;;;;;;2.92;1.10;;;9.10;99.90;;;;;;5054064;28;20140;-87
2023/12/11 10:03:38;;;;;;;0.38;0.38;;;9.10;99.90;;;;;;5054389;28;20175;-87
2023/12/11 10:06:04;;;;;;;0.22;0.22;;;9.20;99.90;;;;;;5019406;28;20143;-87
2023/12/11 10:08:42;;;;;;;0.08;0.08;;;9.20;99.90;;;;;;5054104;28;20045;-87
2023/12/11 10:11:13;;;;;;;4.47;0.90;;;9.30;99.90;;;;;;5054400;28;20041;-87
2023/12/11 10:13:39;;;;;;;1.17;1.05;;;9.40;99.90;;;;;;5054421;28;20033;-87
2023/12/11 10:16:27;;;;;;;7.68;0.80;;;9.50;99.90;;;;;;5036022;28;20106;-88
2023/12/11 10:18:53;;;;;;;35.33;1.08;;;9.50;99.90;;;;;;5036270;28;20048;-87
2023/12/11 10:21:19;;;;;;;4.38;1.45;;;9.50;99.90;;;;;;5054131;28;20076;-88
2023/12/11 10:23:59;;;;;;;0.43;0.40;;;9.50;99.90;;;;;;5036671;28;20490;-87
2023/12/11 10:26:25;;;;;;;2.47;0.65;;;9.60;99.90;;;;;;5053990;28;20507;-87
2023/12/11 10:28:50;;;;;;;0.15;0.15;;;9.50;99.90;;;;;;5053374;28;20060;-88
2023/12/11 10:31:16;;;;;;;0.00;0.00;;;9.40;99.90;;;;;;5036329;28;20097;-88
2023/12/11 10:33:51;;;;;;;0.03;0.03;;;9.40;99.90;;;;;;5053867;28;20033;-87
2023/12/11 10:36:17;;;;;;;0.88;0.45;;;9.50;99.90;;;;;;5037549;28;20403;-87
2023/12/11 10:38:43;;;;;;;0.40;0.40;;;9.40;99.90;;;;;;5037857;28;20032;-87
2023/12/11 10:41:23;;;;;;;0.00;0.00;;;9.40;99.90;;;;;;5037163;28;20110;-87
2023/12/11 10:43:49;;;;;;;0.00;0.00;;;9.40;99.90;;;;;;5054182;28;20049;-87
2023/12/11 10:46:15;;;;;;;0.00;0.00;;;9.40;99.90;;;;;;5054856;28;20051;-87
2023/12/11 10:48:41;;;;;;;0.52;0.38;;;9.40;99.90;;;;;;5036992;28;20048;-87
2023/12/11 10:51:07;;;;;;;0.00;0.00;;;9.40;99.90;;;;;;5054258;28;20436;-87
2023/12/11 10:53:35;;;;;;;1.75;0.80;;;9.50;99.90;;;;;;5054325;28;20041;-87
2023/12/11 10:56:02;;;;;;;0.00;0.00;;;9.50;99.90;;;;;;5055093;28;20487;-87
2023/12/11 10:58:28;;;;;;;0.30;0.30;;;9.50;99.90;;;;;;5055392;28;20164;-87
2023/12/11 11:01:00;;;;;;;0.63;0.63;;;9.50;99.90;;;;;;5054592;28;20056;-87
2023/12/11 11:03:27;;;;;;;1.00;0.90;;;9.50;99.90;;;;;;5054606;28;20080;-87
2023/12/11 11:05:54;;;;;;;0.93;0.75;;;9.50;99.90;;;;;;5044807;28;20548;-87
2023/12/11 11:08:35;;;;;;;0.15;0.15;;;9.50;99.90;;;;;;5034707;28;20394;-87
2023/12/11 11:11:14;;;;;;;1.23;0.65;;;9.50;99.90;;;;;;5016810;28;20509;-87
2023/12/11 11:14:02;;;;;;;2.95;0.52;;;9.50;99.90;;;;;;5034646;28;20523;-87
2023/12/11 11:16:54;;;;;;;0.10;0.10;;;9.40;99.90;;;;;;4997421;28;20089;-87
2023/12/11 11:19:20;;;;;;;0.40;0.40;;;9.40;99.90;;;;;;5027797;28;20053;-87
2023/12/11 11:22:02;;;;;;;0.32;0.32;;;9.40;99.90;;;;;;5034898;28;20041;-87
2023/12/11 11:24:28;;;;;;;0.10;0.10;;;9.40;99.90;;;;;;5014950;28;20056;-87
2023/12/11 11:26:54;;;;;;;0.90;0.57;;;9.40;99.90;;;;;;5028001;28;20044;-87
2023/12/11 11:29:40;;;;;;;1.90;0.13;;;9.40;99.90;;;;;;5035107;28;20041;-87
2023/12/11 11:32:06;;;;;;;0.00;0.00;;;9.40;99.90;;;;;;5034733;28;20046;-87
2023/12/11 11:34:40;;;;;;;0.28;0.22;;;9.40;99.90;;;;;;5027452;28;20384;-87
2023/12/11 11:37:11;;;;;;;3.03;1.00;;;9.40;99.90;;;;;;5054439;28;20084;-87
2023/12/11 11:39:55;;;;;;;0.10;0.10;;;9.40;99.90;;;;;;5034552;28;20053;-87
2023/12/11 11:42:21;;;;;;;7.82;1.60;;;9.40;99.90;;;;;;5024533;28;20053;-87
2023/12/11 11:44:46;;;;;;;1.85;0.93;;;9.30;99.90;;;;;;5016392;28;20048;-87
2023/12/11 11:47:17;;;;;;;0.10;0.10;;;9.30;99.90;;;;;;5016273;28;20050;-87
2023/12/11 11:49:43;;;;;;;0.00;0.00;;;9.20;99.90;;;;;;5033950;28;20503;-87
2023/12/11 11:52:12;;;;;;;0.00;0.00;;;9.10;21.70;;;;;;5034003;28;20041;-87
2023/12/11 11:54:39;;;;;;;2.08;1.08;;;9.00;1.00;;;;;;5016450;28;20045;-87
2023/12/11 11:57:06;;;;;;;0.00;0.00;;;8.90;99.90;;;;;;5034416;28;20049;-87
2023/12/11 11:59:41;;;;;;;0.00;0.00;;;8.90;1.00;;;;;;5034020;28;20435;-87
2023/12/11 12:02:06;;;;;;;0.00;0.00;;;8.80;99.90;;;;;;5016374;28;20511;-87
2023/12/11 12:04:34;;;;;;;0.55;0.55;;;8.80;1.00;;;;;;5022289;28;20080;-87
2023/12/11 12:07:02;;;;;;;0.20;0.20;;;8.80;1.00;;;;;;5053857;28;20046;-87
2023/12/11 12:09:28;;;;;;;0.00;0.00;;;8.80;1.00;;;;;;5053928;28;20136;-87
2023/12/11 12:11:54;;;;;;;0.00;0.00;;;8.80;99.90;;;;;;5045255;28;20053;-87
2023/12/11 12:14:21;;;;;;;0.00;0.00;;;8.80;99.90;;;;;;5033574;28;20052;-87
2023/12/11 12:16:46;;;;;;;0.00;0.00;;;8.80;99.90;;;;;;5033138;28;20042;-87
2023/12/11 12:19:12;;;;;;;0.00;0.00;;;8.80;99.90;;;;;;5033826;28;20038;-87
2023/12/11 12:21:52;;;;;;;14.23;0.98;;;8.80;99.90;;;;;;5033755;28;20033;-88
2023/12/11 12:24:19;;;;;;;0.43;0.20;;;8.70;1.00;;;;;;5033515;28;20060;-87
2023/12/11 12:26:48;;;;;;;2.92;2.03;;;8.70;1.00;;;;;;5033764;28;20120;-88
2023/12/11 12:29:15;;;;;;;0.40;0.40;;;8.70;1.00;;;;;;5015820;28;20053;-87
2023/12/11 12:31:41;;;;;;;0.00;0.00;;;8.70;1.00;;;;;;5033496;28;20491;-88
2023/12/11 12:34:07;;;;;;;0.10;0.10;;;8.80;99.90;;;;;;5033679;28;20056;-87
2023/12/11 12:36:34;;;;;;;0.00;0.00;;;8.80;99.90;;;;;;5037042;28;20053;-87
2023/12/11 12:39:00;;;;;;;0.00;0.00;;;8.80;99.90;;;;;;5040466;28;20084;-88
2023/12/11 12:41:26;;;;;;;0.45;0.28;;;8.80;99.90;;;;;;5040926;28;20041;-87
2023/12/11 12:43:57;;;;;;;0.08;0.08;;;8.90;49.70;;;;;;5040585;28;20037;-88
2023/12/11 12:46:26;;;;;;;3.78;1.80;;;8.70;13.20;;;;;;5023842;28;20046;-88
2023/12/11 12:48:52;;;;;;;15.20;1.35;;;8.70;1.00;;;;;;5041610;28;20042;-88
2023/12/11 12:51:18;;;;;;;0.80;0.63;;;8.70;1.00;;;;;;5042038;28;20101;-88
2023/12/11 12:53:47;;;;;;;2.28;1.20;;;8.60;1.00;;;;;;5041780;28;20056;-88
2023/12/11 12:56:19;;;;;;;3.30;1.75;;;8.60;1.00;;;;;;5024197;28;20053;-88